Albin, Wyoming
Current Conditions -  °F | °C
As of 2:35 PM on Friday 24 Oct 2014 (Local Time) from K82V Reporting Station
Clear Clear  
Wind Chill: 79°   Ceiling: Unl
Heat Index: 79°   Visibility: 10mi
Dew Point: 23°   Wind: 16mph
Humidity: 13%   Direction: 290°WNW
Pressure: 30.12"   Gusts: NA
Location:  41.42°N, 104.1°W
Report Text: K82V 242035Z AUTO 29014KT 10SM CLR 26/M05 A3012 RMK AO2
Loading
Personal Weather Stations






























Interactive Weather Map
Tropical Storm Tracking
New forecast layout! Learn more

10-Day Weather Forecast

Advertisements
Track Severe Weather on mobile